createdAt,value
2022-09-14T00:01:40.512Z,20.35
2022-09-14T00:04:14.484Z,20.30
2022-09-14T00:06:43.564Z,20.35
2022-09-14T00:09:20.518Z,20.35
2022-09-14T00:11:50.065Z,20.41
2022-09-14T00:14:19.243Z,20.48
2022-09-14T00:16:47.595Z,20.54
2022-09-14T00:19:24.372Z,20.61
2022-09-14T00:21:56.048Z,20.66
2022-09-14T00:24:26.048Z,20.70
2022-09-14T00:26:54.483Z,20.72
2022-09-14T00:29:24.112Z,20.70
2022-09-14T00:31:52.471Z,20.67
2022-09-14T00:34:20.736Z,20.66
2022-09-14T00:36:51.062Z,20.68
2022-09-14T00:39:21.268Z,20.72
2022-09-14T00:41:50.734Z,20.74
2022-09-14T00:44:18.989Z,20.79
2022-09-14T00:46:52.071Z,20.79
2022-09-14T00:49:26.065Z,20.55
2022-09-14T00:52:08.973Z,20.30
2022-09-14T00:54:49.881Z,20.12
2022-09-14T00:57:19.296Z,20.01
2022-09-14T00:59:50.402Z,19.88
2022-09-14T01:02:21.409Z,19.84
2022-09-14T01:04:51.195Z,19.83
2022-09-14T01:07:22.304Z,19.86
2022-09-14T01:10:14.546Z,19.86
2022-09-14T01:13:03.978Z,19.89
2022-09-14T01:15:38.301Z,19.94
2022-09-14T01:18:28.133Z,20.03
2022-09-14T01:21:10.522Z,20.06
2022-09-14T01:23:50.445Z,20.08
2022-09-14T01:26:43.225Z,20.09
2022-09-14T01:29:17.957Z,20.14
2022-09-14T01:31:49.177Z,20.21
2022-09-14T01:34:54.260Z,20.27
2022-09-14T01:37:28.790Z,20.15
2022-09-14T01:40:12.617Z,20.18
2022-09-14T01:42:44.549Z,20.18
2022-09-14T01:45:18.179Z,20.14
2022-09-14T01:47:49.243Z,20.08
2022-09-14T01:50:47.192Z,20.11
2022-09-14T01:53:21.089Z,20.09
2022-09-14T01:56:20.170Z,19.98
2022-09-14T01:58:58.611Z,19.88
2022-09-14T02:01:34.968Z,19.86
2022-09-14T02:04:07.172Z,19.89
2022-09-14T02:06:45.471Z,19.91
2022-09-14T02:09:22.595Z,19.91
2022-09-14T02:11:51.198Z,19.88
2022-09-14T02:14:19.348Z,19.86
2022-09-14T02:16:47.491Z,19.83
2022-09-14T02:19:16.833Z,19.83
2022-09-14T02:21:47.652Z,19.81
2022-09-14T02:24:16.125Z,19.79
2022-09-14T02:26:44.476Z,19.81
2022-09-14T02:29:13.015Z,19.79
2022-09-14T02:32:12.775Z,19.76
2022-09-14T02:35:11.086Z,19.75
2022-09-14T02:37:48.187Z,19.74
2022-09-14T02:40:28.029Z,19.73
2022-09-14T02:43:22.995Z,19.75
2022-09-14T02:45:51.031Z,19.82
2022-09-14T02:48:45.009Z,19.83
2022-09-14T02:51:30.530Z,19.86
2022-09-14T02:54:16.145Z,19.88
2022-09-14T02:56:45.104Z,19.95
2022-09-14T02:59:13.450Z,20.03
2022-09-14T03:01:44.646Z,19.94
2022-09-14T03:04:12.822Z,19.64
2022-09-14T03:06:41.011Z,19.35
2022-09-14T03:09:09.128Z,19.18
2022-09-14T03:11:37.208Z,19.00
2022-09-14T03:14:05.784Z,18.93
2022-09-14T03:16:33.986Z,18.93
2022-09-14T03:19:02.121Z,19.00
2022-09-14T03:21:30.255Z,19.03
2022-09-14T03:23:58.661Z,19.07
2022-09-14T03:26:29.689Z,19.17
2022-09-14T03:28:59.220Z,19.24
2022-09-14T03:31:27.729Z,19.35
2022-09-14T03:33:58.221Z,19.44
2022-09-14T03:36:28.366Z,19.37
2022-09-14T03:38:58.926Z,19.33
2022-09-14T03:41:27.378Z,19.32
2022-09-14T03:43:58.084Z,19.31
2022-09-14T03:46:27.195Z,19.30
2022-09-14T03:48:56.167Z,19.24
2022-09-14T03:51:24.640Z,19.22
2022-09-14T03:53:52.777Z,19.25
2022-09-14T03:56:22.586Z,19.11
2022-09-14T03:58:50.830Z,18.98
2022-09-14T04:01:21.947Z,18.88
2022-09-14T04:03:51.202Z,18.78
2022-09-14T04:06:19.876Z,18.79
2022-09-14T04:08:48.593Z,18.75
2022-09-14T04:11:20.875Z,18.67
2022-09-14T04:13:49.678Z,18.65
2022-09-14T04:16:22.855Z,18.67
2022-09-14T04:18:51.199Z,18.69
2022-09-14T04:21:22.029Z,18.77
2022-09-14T04:24:14.068Z,18.78
2022-09-14T04:26:43.320Z,18.84
2022-09-14T04:29:12.805Z,18.90
2022-09-14T04:31:41.118Z,18.77
2022-09-14T04:34:12.847Z,18.61
2022-09-14T04:36:41.088Z,18.62
2022-09-14T04:39:13.657Z,18.61
2022-09-14T04:41:42.066Z,18.57
2022-09-14T04:44:10.525Z,18.49
2022-09-14T04:46:45.095Z,18.29
2022-09-14T04:49:15.006Z,18.20
2022-09-14T04:51:43.169Z,18.20
2022-09-14T04:54:15.707Z,18.17
2022-09-14T04:56:44.431Z,18.22
2022-09-14T04:59:13.299Z,18.32
2022-09-14T05:01:44.567Z,18.40
2022-09-14T05:04:15.265Z,18.44
2022-09-14T05:06:44.393Z,18.52
2022-09-14T05:09:15.466Z,18.67
2022-09-14T05:11:44.296Z,18.77
2022-09-14T05:14:14.038Z,18.88
2022-09-14T05:16:43.577Z,18.94
2022-09-14T05:19:16.914Z,19.01
2022-09-14T05:21:45.376Z,19.09
2022-09-14T05:24:19.839Z,18.91
2022-09-14T05:26:52.010Z,18.74
2022-09-14T05:29:20.291Z,18.67
2022-09-14T05:31:48.406Z,18.68
2022-09-14T05:34:19.822Z,18.74
2022-09-14T05:36:47.894Z,18.81
2022-09-14T05:39:19.799Z,18.95
2022-09-14T05:41:51.064Z,19.09
2022-09-14T05:44:19.392Z,19.21
2022-09-14T05:46:47.580Z,19.32
2022-09-14T05:49:15.663Z,19.39
2022-09-14T05:51:43.861Z,19.28
2022-09-14T05:54:12.123Z,19.30
2022-09-14T05:56:40.246Z,19.39
2022-09-14T05:59:08.463Z,19.58
2022-09-14T06:01:36.629Z,19.82
2022-09-14T06:04:04.819Z,20.05
2022-09-14T06:06:33.744Z,20.31
2022-09-14T06:09:02.912Z,20.45
2022-09-14T06:11:33.865Z,20.54
2022-09-14T06:14:02.266Z,20.68
2022-09-14T06:16:30.688Z,20.82
2022-09-14T06:19:02.459Z,20.90
2022-09-14T06:21:32.674Z,20.99
2022-09-14T06:24:01.133Z,21.10
2022-09-14T06:26:29.271Z,21.19
2022-09-14T06:28:57.564Z,21.23
2022-09-14T06:31:25.828Z,21.34
2022-09-14T06:33:54.484Z,21.49
2022-09-14T06:36:27.333Z,21.57
2022-09-14T06:38:56.091Z,21.88
2022-09-14T06:41:29.054Z,22.60
2022-09-14T06:43:59.540Z,23.76
2022-09-14T06:46:30.992Z,24.37
2022-09-14T06:49:05.274Z,24.42
2022-09-14T06:51:39.647Z,24.11
2022-09-14T06:54:12.164Z,24.03
2022-09-14T06:56:42.681Z,24.02
2022-09-14T06:59:13.331Z,24.16
2022-09-14T07:01:42.395Z,24.13
2022-09-14T07:04:10.508Z,24.22
2022-09-14T07:06:47.064Z,24.36
2022-09-14T07:09:17.103Z,24.42
2022-09-14T07:11:45.752Z,24.57
2022-09-14T07:14:13.885Z,24.85
2022-09-14T07:16:42.075Z,24.93
2022-09-14T07:19:14.078Z,25.10
2022-09-14T07:21:42.923Z,25.14
2022-09-14T07:24:15.072Z,25.04
2022-09-14T07:26:43.611Z,24.76
2022-09-14T07:29:16.816Z,24.66
2022-09-14T07:31:48.066Z,24.57
2022-09-14T07:34:16.904Z,24.61
2022-09-14T07:36:45.442Z,24.55
2022-09-14T07:39:15.517Z,24.67
2022-09-14T07:41:44.397Z,24.99
2022-09-14T07:44:16.347Z,25.35
2022-09-14T07:46:45.940Z,25.58
2022-09-14T07:49:15.741Z,25.67
2022-09-14T07:51:44.219Z,25.69
2022-09-14T07:54:14.074Z,25.79
2022-09-14T07:56:43.609Z,25.88
2022-09-14T08:02:02.106Z,25.87
2022-09-14T08:04:30.366Z,25.89
2022-09-14T08:06:58.967Z,25.81
2022-09-14T08:09:27.555Z,26.17
2022-09-14T08:11:56.080Z,26.48
2022-09-14T08:14:27.416Z,26.72
2022-09-14T08:16:55.567Z,26.91
2022-09-14T08:19:24.015Z,26.80
2022-09-14T08:21:52.196Z,26.63
2022-09-14T08:24:22.011Z,26.70
2022-09-14T08:26:50.603Z,26.89
2022-09-14T08:29:19.607Z,26.77
2022-09-14T08:31:48.673Z,26.59
2022-09-14T08:34:17.373Z,26.51
2022-09-14T08:36:48.149Z,26.57
2022-09-14T08:39:17.302Z,26.67
2022-09-14T08:41:57.012Z,26.78
2022-09-14T08:44:30.975Z,26.91
2022-09-14T08:47:02.923Z,26.84
2022-09-14T08:50:12.190Z,26.80
2022-09-14T08:52:55.952Z,26.84
2022-09-14T08:55:48.956Z,26.71
2022-09-14T08:58:53.884Z,26.63
2022-09-14T09:01:31.097Z,26.47
2022-09-14T09:04:36.238Z,26.28
2022-09-14T09:07:11.554Z,26.17
2022-09-14T09:09:45.075Z,26.29
2022-09-14T09:12:19.542Z,26.36
2022-09-14T09:15:00.658Z,26.57
2022-09-14T09:17:35.118Z,26.67
2022-09-14T09:20:16.020Z,26.80
2022-09-14T09:23:01.351Z,26.80
2022-09-14T09:25:39.352Z,26.77
2022-09-14T09:28:12.429Z,26.69
2022-09-14T09:30:41.411Z,26.75
2022-09-14T09:33:17.882Z,26.71
2022-09-14T09:36:15.869Z,26.57
2022-09-14T09:38:44.198Z,26.45
2022-09-14T09:41:21.923Z,26.20
2022-09-14T09:44:09.421Z,26.00
2022-09-14T09:46:51.278Z,25.84
2022-09-14T09:49:21.996Z,26.01
2022-09-14T09:51:51.415Z,26.27
2022-09-14T09:54:30.478Z,26.64
2022-09-14T09:57:04.536Z,26.92
2022-09-14T09:59:35.434Z,26.95
2022-09-14T10:02:31.385Z,27.23
2022-09-14T10:05:10.188Z,27.49
2022-09-14T10:07:59.703Z,27.52
2022-09-14T10:10:45.248Z,27.57
2022-09-14T10:13:38.212Z,27.62
2022-09-14T10:16:18.777Z,27.47
2022-09-14T10:18:49.867Z,27.57
2022-09-14T10:21:20.480Z,27.79
2022-09-14T10:24:20.523Z,27.85
2022-09-14T10:26:48.612Z,27.92
2022-09-14T10:29:39.761Z,28.08
2022-09-14T10:32:24.073Z,28.15
2022-09-14T10:34:52.807Z,28.02
2022-09-14T10:37:32.138Z,28.08
2022-09-14T10:40:17.470Z,28.05
2022-09-14T10:43:08.842Z,28.17
2022-09-14T10:45:50.952Z,28.22
2022-09-14T10:48:52.724Z,28.12
2022-09-14T10:51:29.815Z,27.62
2022-09-14T10:54:27.588Z,27.64
2022-09-14T10:57:10.338Z,27.75
2022-09-14T10:59:54.266Z,28.12
2022-09-14T11:02:40.193Z,28.48
2022-09-14T11:05:30.228Z,28.63
2022-09-14T11:08:08.289Z,28.76
2022-09-14T11:10:46.940Z,28.80
2022-09-14T11:13:23.712Z,28.91
2022-09-14T11:15:57.863Z,28.87
2022-09-14T11:18:51.438Z,28.97
2022-09-14T11:21:30.058Z,29.17
2022-09-14T11:24:14.212Z,29.39
2022-09-14T11:27:06.771Z,29.70
2022-09-14T11:29:53.059Z,29.77
2022-09-14T11:32:26.967Z,30.08
2022-09-14T11:35:21.194Z,29.97
2022-09-14T11:37:53.003Z,29.61
2022-09-14T11:40:35.149Z,29.62
2022-09-14T11:43:11.376Z,29.85
2022-09-14T11:45:39.545Z,29.88
2022-09-14T11:48:42.443Z,30.16
2022-09-14T11:51:11.309Z,30.45
2022-09-14T11:53:42.872Z,30.56
2022-09-14T11:56:26.295Z,30.14
2022-09-14T11:59:00.641Z,29.98
2022-09-14T12:01:36.915Z,29.99
2022-09-14T12:04:16.986Z,29.76
2022-09-14T12:06:49.597Z,29.55
2022-09-14T12:09:21.457Z,29.43
2022-09-14T12:11:58.592Z,29.44
2022-09-14T12:14:30.324Z,29.51
2022-09-14T12:17:45.938Z,29.50
2022-09-14T12:20:29.527Z,29.67
2022-09-14T12:23:25.898Z,29.83
2022-09-14T12:26:02.628Z,30.27
2022-09-14T12:28:39.345Z,30.62
2022-09-14T12:31:29.342Z,30.61
2022-09-14T12:34:16.441Z,30.34
2022-09-14T12:36:44.477Z,30.14
2022-09-14T12:39:30.929Z,29.97
2022-09-14T12:42:02.060Z,29.65
2022-09-14T12:44:43.741Z,29.39
2022-09-14T12:47:29.969Z,29.31
2022-09-14T12:50:16.159Z,29.24
2022-09-14T12:52:44.177Z,29.42
2022-09-14T12:55:42.719Z,29.65
2022-09-14T12:58:30.863Z,30.14
2022-09-14T13:01:08.026Z,30.58
2022-09-14T13:03:48.757Z,31.37
2022-09-14T13:06:18.251Z,31.82
2022-09-14T13:08:53.963Z,31.94
2022-09-14T13:11:39.500Z,31.98
2022-09-14T13:14:16.451Z,31.63
2022-09-14T13:16:47.651Z,30.88
2022-09-14T13:19:42.463Z,30.39
2022-09-14T13:22:25.453Z,30.10
2022-09-14T13:24:53.975Z,30.07
2022-09-14T13:27:36.146Z,29.99
2022-09-14T13:30:23.041Z,29.88
2022-09-14T13:32:54.603Z,29.93
2022-09-14T13:35:36.078Z,30.04
2022-09-14T13:38:26.523Z,29.89
2022-09-14T13:41:03.904Z,29.63
2022-09-14T13:43:32.895Z,29.58
2022-09-14T13:46:01.524Z,29.42
2022-09-14T13:48:30.531Z,29.33
2022-09-14T13:51:03.461Z,29.27
2022-09-14T13:53:40.708Z,29.18
2022-09-14T13:56:28.176Z,29.07
2022-09-14T13:59:18.308Z,29.05
2022-09-14T14:01:57.925Z,28.81
2022-09-14T14:04:37.378Z,28.72
2022-09-14T14:07:27.594Z,28.67
2022-09-14T14:09:58.816Z,28.59
2022-09-14T14:12:37.007Z,28.56
2022-09-14T14:15:28.566Z,28.58
2022-09-14T14:18:02.295Z,28.59
2022-09-14T14:20:34.328Z,28.57
2022-09-14T14:23:21.585Z,28.52
2022-09-14T14:25:54.373Z,28.42
2022-09-14T14:28:30.948Z,28.26
2022-09-14T14:31:07.752Z,28.22
2022-09-14T14:33:44.484Z,28.21
2022-09-14T14:36:13.471Z,28.13
2022-09-14T14:38:45.981Z,27.97
2022-09-14T14:41:17.543Z,27.99
2022-09-14T14:43:47.700Z,27.97
2022-09-14T14:46:16.654Z,27.83
2022-09-14T14:48:44.899Z,27.83
2022-09-14T14:51:15.655Z,27.79
2022-09-14T14:53:44.723Z,27.71
2022-09-14T14:56:14.177Z,27.68
2022-09-14T14:58:46.784Z,27.60
2022-09-14T15:01:16.427Z,27.52
2022-09-14T15:03:44.774Z,27.45
2022-09-14T15:06:16.583Z,27.42
2022-09-14T15:08:47.850Z,27.38
2022-09-14T15:11:19.405Z,27.30
2022-09-14T15:13:47.847Z,27.29
2022-09-14T15:16:16.495Z,27.21
2022-09-14T15:18:44.719Z,27.17
2022-09-14T15:21:12.882Z,27.07
2022-09-14T15:23:41.361Z,27.02
2022-09-14T15:26:09.638Z,26.97
2022-09-14T15:28:38.668Z,26.97
2022-09-14T15:31:08.132Z,26.96
2022-09-14T15:33:36.293Z,26.87
2022-09-14T15:36:04.482Z,26.80
2022-09-14T15:38:32.541Z,26.66
2022-09-14T15:41:00.739Z,26.53
2022-09-14T15:43:28.901Z,26.46
2022-09-14T15:46:02.936Z,26.37
2022-09-14T15:48:31.084Z,26.33
2022-09-14T15:51:00.729Z,26.25
2022-09-14T15:53:29.793Z,26.13
2022-09-14T15:56:00.814Z,26.02
2022-09-14T15:58:30.854Z,25.71
2022-09-14T16:00:59.127Z,25.39
2022-09-14T16:03:27.415Z,25.04
2022-09-14T16:05:55.503Z,24.74
2022-09-14T16:08:23.551Z,24.51
2022-09-14T16:10:58.695Z,24.39
2022-09-14T16:13:27.068Z,24.45
2022-09-14T16:16:07.388Z,24.52
2022-09-14T16:18:36.326Z,24.63
2022-09-14T16:21:15.919Z,24.63
2022-09-14T16:23:46.792Z,24.59
2022-09-14T16:26:17.562Z,24.52
2022-09-14T16:28:48.016Z,24.50
2022-09-14T16:31:33.948Z,24.42
2022-09-14T16:34:05.256Z,24.35
2022-09-14T16:36:36.890Z,24.28
2022-09-14T16:39:16.496Z,24.18
2022-09-14T16:41:45.579Z,24.12
2022-09-14T16:44:16.855Z,24.05
2022-09-14T16:46:45.651Z,23.93
2022-09-14T16:49:18.046Z,23.92
2022-09-14T16:51:49.010Z,23.87
2022-09-14T16:54:19.726Z,23.82
2022-09-14T16:56:48.545Z,23.80
2022-09-14T16:59:17.763Z,23.77
2022-09-14T17:01:51.932Z,23.67
2022-09-14T17:04:23.058Z,23.62
2022-09-14T17:06:52.159Z,23.64
2022-09-14T17:09:23.342Z,23.53
2022-09-14T17:11:52.094Z,23.46
2022-09-14T17:14:26.336Z,23.33
2022-09-14T17:16:54.913Z,23.32
2022-09-14T17:19:23.565Z,23.27
2022-09-14T17:21:51.652Z,23.21
2022-09-14T17:24:21.937Z,23.15
2022-09-14T17:26:50.395Z,23.06
2022-09-14T17:29:18.743Z,22.99
2022-09-14T17:31:47.301Z,22.96
2022-09-14T17:34:17.158Z,22.93
2022-09-14T17:36:46.076Z,22.86
2022-09-14T17:39:15.677Z,22.81
2022-09-14T17:41:44.201Z,22.77
2022-09-14T17:44:14.519Z,22.77
2022-09-14T17:46:52.500Z,22.70
2022-09-14T17:49:22.972Z,22.63
2022-09-14T17:51:51.351Z,22.62
2022-09-14T17:54:19.973Z,22.59
2022-09-14T17:56:48.667Z,22.58
2022-09-14T17:59:21.789Z,22.59
2022-09-14T18:01:50.510Z,22.59
2022-09-14T18:04:19.261Z,22.56
2022-09-14T18:06:49.187Z,22.51
2022-09-14T18:09:22.621Z,22.49
2022-09-14T18:11:51.614Z,22.48
2022-09-14T18:14:19.788Z,22.49
2022-09-14T18:16:48.335Z,22.47
2022-09-14T18:19:17.100Z,22.44
2022-09-14T18:21:50.294Z,22.37
2022-09-14T18:24:20.414Z,22.33
2022-09-14T18:26:48.765Z,22.33
2022-09-14T18:29:20.999Z,22.33
2022-09-14T18:31:49.697Z,22.33
2022-09-14T18:34:18.437Z,22.30
2022-09-14T18:36:46.609Z,22.28
2022-09-14T18:39:14.945Z,22.25
2022-09-14T18:41:43.701Z,22.28
2022-09-14T18:44:11.816Z,22.28
2022-09-14T18:46:40.113Z,22.28
2022-09-14T18:49:08.992Z,22.31
2022-09-14T18:51:38.230Z,22.33
2022-09-14T18:54:09.809Z,22.36
2022-09-14T18:56:38.427Z,22.36
2022-09-14T18:59:10.156Z,22.34
2022-09-14T19:01:39.006Z,22.28
2022-09-14T19:04:08.964Z,22.24
2022-09-14T19:06:38.299Z,22.20
2022-09-14T19:09:07.520Z,22.16
2022-09-14T19:11:36.199Z,22.12
2022-09-14T19:14:10.101Z,22.17
2022-09-14T19:16:39.865Z,22.20
2022-09-14T19:19:10.681Z,22.15
2022-09-14T19:21:38.875Z,22.14
2022-09-14T19:24:15.690Z,22.16
2022-09-14T19:26:52.793Z,22.11
2022-09-14T19:29:23.123Z,22.07
2022-09-14T19:31:52.480Z,22.03
2022-09-14T19:34:24.158Z,22.07
2022-09-14T19:36:53.669Z,22.03
2022-09-14T19:39:23.768Z,21.96
2022-09-14T19:41:52.808Z,21.83
2022-09-14T19:44:23.178Z,21.85
2022-09-14T19:46:51.412Z,21.83
2022-09-14T19:49:22.596Z,21.76
2022-09-14T19:51:51.606Z,21.77
2022-09-14T19:54:20.040Z,21.76
2022-09-14T19:56:48.235Z,21.70
2022-09-14T19:59:16.778Z,21.68
2022-09-14T20:01:45.523Z,21.69
2022-09-14T20:04:15.775Z,21.64
2022-09-14T20:06:45.418Z,21.60
2022-09-14T20:09:17.204Z,21.63
2022-09-14T20:11:47.195Z,21.60
2022-09-14T20:14:19.368Z,21.58
2022-09-14T20:16:50.394Z,21.62
2022-09-14T20:19:20.623Z,21.64
2022-09-14T20:21:50.684Z,21.62
2022-09-14T20:24:25.403Z,21.63
2022-09-14T20:26:56.618Z,21.68
2022-09-14T20:29:26.109Z,21.76
2022-09-14T20:31:54.224Z,21.70
2022-09-14T20:34:22.770Z,21.66
2022-09-14T20:36:52.212Z,21.62
2022-09-14T20:39:22.174Z,21.59
2022-09-14T20:41:50.611Z,21.61
2022-09-14T20:44:23.099Z,21.57
2022-09-14T20:46:51.903Z,21.49
2022-09-14T20:49:22.972Z,21.44
2022-09-14T20:51:54.961Z,21.39
2022-09-14T20:54:25.867Z,21.35
2022-09-14T20:56:54.305Z,21.38
2022-09-14T20:59:25.633Z,21.38
2022-09-14T21:01:53.873Z,21.39
2022-09-14T21:04:24.515Z,21.35
2022-09-14T21:06:55.231Z,21.24
2022-09-14T21:09:25.515Z,21.19
2022-09-14T21:11:54.402Z,21.17
2022-09-14T21:14:23.287Z,21.12
2022-09-14T21:16:56.574Z,20.97
2022-09-14T21:19:27.239Z,20.94
2022-09-14T21:21:55.723Z,20.96
2022-09-14T21:24:24.597Z,20.94
2022-09-14T21:26:52.678Z,20.92
2022-09-14T21:29:23.900Z,20.90
2022-09-14T21:31:52.882Z,20.89
2022-09-14T21:34:21.444Z,20.91
2022-09-14T21:36:51.459Z,20.90
2022-09-14T21:39:23.209Z,20.87
2022-09-14T21:41:58.336Z,20.87
2022-09-14T21:44:35.320Z,20.86
2022-09-14T21:47:04.861Z,20.87
2022-09-14T21:49:33.000Z,20.85
2022-09-14T21:52:01.167Z,20.87
2022-09-14T21:54:29.805Z,20.84
2022-09-14T21:56:58.033Z,20.79
2022-09-14T21:59:26.096Z,20.78
2022-09-14T22:01:54.384Z,20.76
2022-09-14T22:04:24.103Z,20.72
2022-09-14T22:06:53.314Z,20.66
2022-09-14T22:09:24.627Z,20.69
2022-09-14T22:11:54.605Z,20.65
2022-09-14T22:14:28.377Z,20.60
2022-09-14T22:16:56.978Z,20.59
2022-09-14T22:19:28.459Z,20.66
2022-09-14T22:21:56.927Z,20.64
2022-09-14T22:24:37.107Z,20.65
2022-09-14T22:27:10.209Z,20.66
2022-09-14T22:29:41.426Z,20.66
2022-09-14T22:32:11.968Z,20.64
2022-09-14T22:34:42.276Z,20.63
2022-09-14T22:37:11.412Z,20.66
2022-09-14T22:39:39.563Z,20.73
2022-09-14T22:42:07.649Z,20.77
2022-09-14T22:44:35.818Z,20.74
2022-09-14T22:47:09.259Z,20.71
2022-09-14T22:49:37.361Z,20.70
2022-09-14T22:52:05.410Z,20.73
2022-09-14T22:54:33.491Z,20.77
2022-09-14T22:57:01.606Z,20.74
2022-09-14T22:59:29.841Z,20.79
2022-09-14T23:01:58.176Z,20.66
2022-09-14T23:04:27.364Z,20.63
2022-09-14T23:06:55.492Z,20.65
2022-09-14T23:09:23.654Z,20.70
2022-09-14T23:11:51.722Z,20.71
2022-09-14T23:14:19.913Z,20.72
2022-09-14T23:16:48.082Z,20.67
2022-09-14T23:19:18.243Z,20.65
2022-09-14T23:21:46.844Z,20.67
2022-09-14T23:24:15.559Z,20.61
2022-09-14T23:26:43.882Z,20.55
2022-09-14T23:29:15.545Z,20.56
2022-09-14T23:31:43.875Z,20.54
2022-09-14T23:34:12.023Z,20.52
2022-09-14T23:36:40.234Z,20.52
2022-09-14T23:39:08.279Z,20.50
2022-09-14T23:41:36.372Z,20.40
2022-09-14T23:44:04.759Z,20.38
2022-09-14T23:46:32.918Z,20.37
2022-09-14T23:49:01.045Z,20.19
2022-09-14T23:51:29.093Z,20.16
2022-09-14T23:53:57.159Z,20.18
2022-09-14T23:56:25.513Z,20.18
2022-09-14T23:58:53.687Z,20.18
